Airport View

Enter AWOS ICAO identifier for current METAR.

ex. KFNL

KRME 202353Z 00000KT 10SM CLR 17/14 A3020 RMK AO2 SLP227 T01670144 10239 20156 53010

21 Sep 2019 00:38

Phone: 315-337-0379

Other Area AWOS: KSYR - KFZY - KNY0 - K6B9

TAF KRME 202323Z 2100/2124 VRB04KT P6SM FEW250